Seabourn Odyssey — C6XC6 — position and weather

sailwx.info

Track history (hours):
 
Tides and Currents Weather Stations Pressure Air Temp Water Temp Dewpoint Dewpoint Depression Visibility Wind Speed Wind Dir Waves Ship Positions

Seabourn Odyssey

Last reported at 2020-Mar-09 17:18 UTC. Time now 2020-Apr-05 06:23 UTC.
Position N 17°16' W 062°46'.
Warning: this ship's position is 26 days out of date.

Length 198 m; draft 6.7 m.

Type: Ship. MMSI: 309416000.

Date/timePositionNaut miles runAvg speedWind from/ knotsBaromVisibWave heightAir tempDewpointWater temp
2020-Mar-09 17:18N 17°16' W 062°46'21 6.4
2020-Mar-09 14:06N 17°29' W 063°03'1 7.0
2020-Mar-09 13:54N 17°30' W 063°04'3 7.1
2020-Mar-09 13:30N 17°32' W 063°06'3 7.0
2020-Mar-09 13:00N 17°35' W 063°08'8 7.1
2020-Mar-09 11:55N 17°41' W 063°12'10 7.2
2020-Mar-09 10:29N 17°50' W 063°18'14 7.2
2020-Mar-09 08:30N 17°59' W 063°30'73 7.0
2020-Mar-08 22:00N 18°26' W 064°41'97 5.1
2020-Mar-08 02:57N 18°00' W 063°03'0 0.7
2020-Mar-08 02:24N 18°01' W 063°03'0 0.0
2020-Mar-08 00:12N 18°01' W 063°03'8 4.2
2020-Mar-07 22:19N 17°53' W 063°05'8 1.8
2020-Mar-07 17:51N 18°01' W 063°03'0 0.0
2020-Mar-07 13:40N 18°01' W 063°03'0 0.0
2020-Mar-07 13:10N 18°01' W 063°03'0 0.0
2020-Mar-07 10:58N 18°01' W 063°03'0 0.0
2020-Mar-07 10:27N 18°01' W 063°03'4 3.5
2020-Mar-07 09:26N 17°60' W 063°06'3 2.4
2020-Mar-07 08:16N 17°57' W 063°05'22 6.4
2020-Mar-07 04:50N 17°36' W 063°08'36 1.8
2020-Mar-06 08:49N 17°03' W 062°51'12 5.8
2020-Mar-06 06:49N 16°59' W 062°40'8 0.2
2020-Mar-04 21:29N 17°07' W 062°42'  
Track history (hours):
 
Tides and Currents Weather Stations Pressure Air Temp Water Temp Dewpoint Dewpoint Depression Visibility Wind Speed Wind Dir Waves Ship Positions

Seabourn Odyssey

Last reported at 2020-Mar-09 17:18 UTC. Time now 2020-Apr-05 06:23 UTC.
Position N 17°16' W 062°46'.
Warning: this ship's position is 26 days out of date.

Length 198 m; draft 6.7 m.

Type: Ship. MMSI: 309416000.

Date/timePositionNaut miles runAvg speedWind from/ knotsBaromVisibWave heightAir tempDewpointWater temp
2020-Mar-09 17:18N 17°16' W 062°46'21 6.4
2020-Mar-09 14:06N 17°29' W 063°03'1 7.0
2020-Mar-09 13:54N 17°30' W 063°04'3 7.1
2020-Mar-09 13:30N 17°32' W 063°06'3 7.0
2020-Mar-09 13:00N 17°35' W 063°08'8 7.1
2020-Mar-09 11:55N 17°41' W 063°12'10 7.2
2020-Mar-09 10:29N 17°50' W 063°18'14 7.2
2020-Mar-09 08:30N 17°59' W 063°30'73 7.0
2020-Mar-08 22:00N 18°26' W 064°41'97 5.1
2020-Mar-08 02:57N 18°00' W 063°03'0 0.7
2020-Mar-08 02:24N 18°01' W 063°03'0 0.0
2020-Mar-08 00:12N 18°01' W 063°03'8 4.2
2020-Mar-07 22:19N 17°53' W 063°05'8 1.8
2020-Mar-07 17:51N 18°01' W 063°03'0 0.0
2020-Mar-07 13:40N 18°01' W 063°03'0 0.0
2020-Mar-07 13:10N 18°01' W 063°03'0 0.0
2020-Mar-07 10:58N 18°01' W 063°03'0 0.0
2020-Mar-07 10:27N 18°01' W 063°03'4 3.5
2020-Mar-07 09:26N 17°60' W 063°06'3 2.4
2020-Mar-07 08:16N 17°57' W 063°05'22 6.4
2020-Mar-07 04:50N 17°36' W 063°08'36 1.8
2020-Mar-06 08:49N 17°03' W 062°51'12 5.8
2020-Mar-06 06:49N 16°59' W 062°40'8 0.2
2020-Mar-04 21:29N 17°07' W 062°42'  

Dump ship's entire track history